createdAt,value
2023-02-09T00:00:07.084Z,-4.47
2023-02-09T00:02:59.907Z,-4.45
2023-02-09T00:05:27.009Z,-4.43
2023-02-09T00:07:53.841Z,-4.42
2023-02-09T00:10:20.345Z,-4.40
2023-02-09T00:13:05.860Z,-4.37
2023-02-09T00:15:32.478Z,-4.34
2023-02-09T00:17:59.322Z,-4.32
2023-02-09T00:20:26.144Z,-4.29
2023-02-09T00:22:52.747Z,-4.27
2023-02-09T00:25:19.447Z,-4.24
2023-02-09T00:27:46.304Z,-4.22
2023-02-09T00:30:13.403Z,-4.21
2023-02-09T00:32:40.148Z,-4.20
2023-02-09T00:35:07.472Z,-4.19
2023-02-09T00:37:34.929Z,-4.18
2023-02-09T00:40:01.643Z,-4.17
2023-02-09T00:42:28.453Z,-4.16
2023-02-09T00:44:55.279Z,-4.16
2023-02-09T00:47:22.242Z,-4.16
2023-02-09T00:49:49.065Z,-4.17
2023-02-09T00:52:15.881Z,-4.18
2023-02-09T00:54:42.632Z,-4.20
2023-02-09T00:57:09.694Z,-4.21
2023-02-09T00:59:36.438Z,-4.22
2023-02-09T01:02:03.369Z,-4.23
2023-02-09T01:04:30.073Z,-4.25
2023-02-09T01:06:56.963Z,-4.26
2023-02-09T01:09:24.797Z,-4.28
2023-02-09T01:11:51.698Z,-4.29
2023-02-09T01:14:18.407Z,-4.30
2023-02-09T01:16:45.058Z,-4.32
2023-02-09T01:19:13.518Z,-4.33
2023-02-09T01:21:41.417Z,-4.35
2023-02-09T01:24:12.657Z,-4.37
2023-02-09T01:26:40.128Z,-4.39
2023-02-09T01:29:07.028Z,-4.42
2023-02-09T01:31:35.337Z,-4.46
2023-02-09T01:34:03.943Z,-4.49
2023-02-09T01:36:32.347Z,-4.53
2023-02-09T01:39:00.879Z,-4.57
2023-02-09T01:41:28.184Z,-4.61
2023-02-09T01:44:02.977Z,-4.65
2023-02-09T01:46:32.808Z,-4.69
2023-02-09T01:49:06.922Z,-4.73
2023-02-09T01:51:37.860Z,-4.76
2023-02-09T01:54:08.693Z,-4.79
2023-02-09T01:56:38.894Z,-4.82
2023-02-09T01:59:07.435Z,-4.84
2023-02-09T02:01:37.483Z,-4.87
2023-02-09T02:04:05.169Z,-4.90
2023-02-09T02:06:32.381Z,-4.93
2023-02-09T02:09:08.381Z,-4.96
2023-02-09T02:11:35.520Z,-5.00
2023-02-09T02:14:02.408Z,-5.02
2023-02-09T02:16:53.573Z,-5.04
2023-02-09T02:19:38.479Z,-5.07
2023-02-09T02:22:36.727Z,-5.09
2023-02-09T02:25:15.169Z,-5.09
2023-02-09T02:28:30.400Z,-5.10
2023-02-09T02:31:03.232Z,-5.09
2023-02-09T02:33:45.149Z,-5.09
2023-02-09T02:36:31.076Z,-5.08
2023-02-09T02:39:18.085Z,-5.08
2023-02-09T02:42:17.129Z,-5.07
2023-02-09T02:44:52.286Z,-5.07
2023-02-09T02:47:21.467Z,-5.06
2023-02-09T02:50:01.085Z,-5.05
2023-02-09T02:52:27.902Z,-5.04
2023-02-09T02:55:04.706Z,-5.03
2023-02-09T02:57:34.101Z,-5.02
2023-02-09T03:00:06.134Z,-5.01
2023-02-09T03:03:05.885Z,-5.01
2023-02-09T03:05:33.155Z,-5.00
2023-02-09T03:08:00.176Z,-5.01
2023-02-09T03:10:36.998Z,-5.02
2023-02-09T03:13:47.359Z,-5.02
2023-02-09T03:17:06.634Z,-5.02
2023-02-09T03:19:47.893Z,-5.02
2023-02-09T03:22:31.003Z,-5.02
2023-02-09T03:25:04.857Z,-5.03
2023-02-09T03:27:46.022Z,-5.04
2023-02-09T03:30:16.605Z,-5.02
2023-02-09T03:32:46.130Z,-5.01
2023-02-09T03:35:17.512Z,-5.00
2023-02-09T03:37:44.507Z,-4.99
2023-02-09T03:40:11.613Z,-4.96
2023-02-09T03:42:50.875Z,-4.95
2023-02-09T03:45:17.785Z,-4.94
2023-02-09T03:47:44.403Z,-4.93
2023-02-09T03:50:11.050Z,-4.92
2023-02-09T03:52:38.018Z,-4.91
2023-02-09T03:55:04.911Z,-4.88
2023-02-09T03:57:31.566Z,-4.87
2023-02-09T03:59:58.263Z,-4.86
2023-02-09T04:02:25.312Z,-4.88
2023-02-09T04:04:53.060Z,-4.89
2023-02-09T04:07:19.794Z,-4.90
2023-02-09T04:09:46.623Z,-4.90
2023-02-09T04:12:13.292Z,-4.87
2023-02-09T04:14:39.953Z,-4.85
2023-02-09T04:17:06.663Z,-4.81
2023-02-09T04:19:33.356Z,-4.78
2023-02-09T04:22:00.423Z,-4.74
2023-02-09T04:24:27.914Z,-4.70
2023-02-09T04:26:54.955Z,-4.66
2023-02-09T04:29:21.982Z,-4.64
2023-02-09T04:31:48.639Z,-4.61
2023-02-09T04:34:15.401Z,-4.60
2023-02-09T04:36:42.964Z,-4.58
2023-02-09T04:39:09.655Z,-4.56
2023-02-09T04:41:36.342Z,-4.54
2023-02-09T04:44:03.252Z,-4.50
2023-02-09T04:46:29.929Z,-4.48
2023-02-09T04:48:56.660Z,-4.48
2023-02-09T04:51:23.514Z,-4.49
2023-02-09T04:53:50.164Z,-4.51
2023-02-09T04:56:17.316Z,-4.52
2023-02-09T04:59:02.762Z,-4.53
2023-02-09T05:01:30.613Z,-4.54
2023-02-09T05:03:58.144Z,-4.55
2023-02-09T05:06:24.717Z,-4.56
2023-02-09T05:08:51.780Z,-4.57
2023-02-09T05:11:18.470Z,-4.57
2023-02-09T05:13:46.482Z,-4.58
2023-02-09T05:16:16.838Z,-4.58
2023-02-09T05:18:43.896Z,-4.59
2023-02-09T05:21:10.601Z,-4.60
2023-02-09T05:23:37.752Z,-4.59
2023-02-09T05:26:04.543Z,-4.59
2023-02-09T05:28:31.337Z,-4.58
2023-02-09T05:30:58.093Z,-4.57
2023-02-09T05:33:25.295Z,-4.58
2023-02-09T05:35:53.298Z,-4.58
2023-02-09T05:38:20.025Z,-4.57
2023-02-09T05:40:47.163Z,-4.57
2023-02-09T05:43:14.108Z,-4.58
2023-02-09T05:45:41.309Z,-4.59
2023-02-09T05:48:08.105Z,-4.61
2023-02-09T05:50:35.324Z,-4.62
2023-02-09T05:53:07.892Z,-4.61
2023-02-09T05:55:34.705Z,-4.60
2023-02-09T05:58:01.338Z,-4.61
2023-02-09T06:00:29.323Z,-4.61
2023-02-09T06:02:56.485Z,-4.61
2023-02-09T06:05:23.564Z,-4.61
2023-02-09T06:07:50.668Z,-4.62
2023-02-09T06:10:18.128Z,-4.61
2023-02-09T06:12:45.289Z,-4.61
2023-02-09T06:15:13.023Z,-4.60
2023-02-09T06:17:39.777Z,-4.60
2023-02-09T06:20:06.946Z,-4.61
2023-02-09T06:22:33.771Z,-4.61
2023-02-09T06:25:00.594Z,-4.62
2023-02-09T06:27:27.415Z,-4.65
2023-02-09T06:29:54.501Z,-4.68
2023-02-09T06:32:21.248Z,-4.71
2023-02-09T06:34:48.258Z,-4.75
2023-02-09T06:37:15.089Z,-4.77
2023-02-09T06:39:42.216Z,-4.80
2023-02-09T06:42:09.332Z,-4.81
2023-02-09T06:44:36.178Z,-4.82
2023-02-09T06:47:03.591Z,-4.83
2023-02-09T06:49:30.164Z,-4.85
2023-02-09T06:51:57.357Z,-4.86
2023-02-09T06:54:25.171Z,-4.88
2023-02-09T06:56:51.996Z,-4.90
2023-02-09T06:59:18.720Z,-4.93
2023-02-09T07:01:45.711Z,-4.94
2023-02-09T07:04:12.366Z,-4.94
2023-02-09T07:06:39.192Z,-4.95
2023-02-09T07:09:06.337Z,-4.93
2023-02-09T07:11:33.012Z,-4.90
2023-02-09T07:14:04.838Z,-4.85
2023-02-09T07:16:31.713Z,-4.80
2023-02-09T07:19:00.422Z,-4.73
2023-02-09T07:21:36.586Z,-4.65
2023-02-09T07:24:03.740Z,-4.56
2023-02-09T07:26:30.677Z,-4.48
2023-02-09T07:28:57.241Z,-4.39
2023-02-09T07:31:24.563Z,-4.30
2023-02-09T07:33:52.959Z,-4.22
2023-02-09T07:36:19.492Z,-4.13
2023-02-09T07:38:46.234Z,-4.03
2023-02-09T07:41:16.393Z,-3.95
2023-02-09T07:43:43.233Z,-3.86
2023-02-09T07:46:13.457Z,-3.78
2023-02-09T07:48:40.325Z,-3.70
2023-02-09T07:51:15.954Z,-3.64
2023-02-09T07:53:43.081Z,-3.56
2023-02-09T07:56:09.754Z,-3.47
2023-02-09T07:58:37.192Z,-3.39
2023-02-09T08:01:06.680Z,-3.31
2023-02-09T08:03:38.130Z,-3.22
2023-02-09T08:06:39.648Z,-3.11
2023-02-09T08:09:09.909Z,-3.00
2023-02-09T08:12:00.921Z,-2.90
2023-02-09T08:14:36.226Z,-2.79
2023-02-09T08:17:19.633Z,-2.69
2023-02-09T08:19:51.206Z,-2.56
2023-02-09T08:22:18.724Z,-2.45
2023-02-09T08:24:45.449Z,-2.35
2023-02-09T08:27:12.148Z,-2.25
2023-02-09T08:29:39.250Z,-2.14
2023-02-09T08:32:06.100Z,-2.04
2023-02-09T08:34:32.712Z,-1.90
2023-02-09T08:36:59.688Z,-1.74
2023-02-09T08:39:26.314Z,-1.58
2023-02-09T08:41:52.870Z,-1.50
2023-02-09T08:44:19.714Z,-1.41
2023-02-09T08:46:46.543Z,-1.32
2023-02-09T08:49:13.226Z,-1.21
2023-02-09T08:51:40.137Z,-1.11
2023-02-09T08:54:06.908Z,-1.01
2023-02-09T08:56:33.539Z,-0.89
2023-02-09T08:59:00.188Z,-0.76
2023-02-09T09:01:26.996Z,-0.66
2023-02-09T09:03:53.774Z,-0.58
2023-02-09T09:06:21.684Z,-0.48
2023-02-09T09:08:48.650Z,-0.34
2023-02-09T09:11:15.336Z,-0.23
2023-02-09T09:13:42.727Z,-0.11
2023-02-09T09:16:19.274Z,0.00
2023-02-09T09:18:46.279Z,0.12
2023-02-09T09:21:15.666Z,0.24
2023-02-09T09:23:46.244Z,0.33
2023-02-09T09:26:15.220Z,0.43
2023-02-09T09:28:41.894Z,0.51
2023-02-09T09:31:16.546Z,0.59
2023-02-09T09:33:50.027Z,0.67
2023-02-09T09:36:16.913Z,0.75
2023-02-09T09:38:43.648Z,0.83
2023-02-09T09:41:22.537Z,0.89
2023-02-09T09:43:50.420Z,0.98
2023-02-09T09:46:21.435Z,1.07
2023-02-09T09:48:55.632Z,1.13
2023-02-09T09:51:35.450Z,1.18
2023-02-09T09:54:05.795Z,1.24
2023-02-09T09:56:32.949Z,1.28
2023-02-09T09:59:01.327Z,1.33
2023-02-09T10:01:31.178Z,1.39
2023-02-09T10:04:11.305Z,1.45
2023-02-09T10:06:41.341Z,1.52
2023-02-09T10:09:20.872Z,1.59
2023-02-09T10:11:55.731Z,1.64
2023-02-09T10:14:23.735Z,1.68
2023-02-09T10:16:50.601Z,1.72
2023-02-09T10:19:28.431Z,1.75
2023-02-09T10:21:55.698Z,1.79
2023-02-09T10:24:30.568Z,1.82
2023-02-09T10:27:28.306Z,1.86
2023-02-09T10:30:01.422Z,1.90
2023-02-09T10:32:42.734Z,1.93
2023-02-09T10:35:41.232Z,1.96
2023-02-09T10:38:16.531Z,1.99
2023-02-09T10:40:47.043Z,2.02
2023-02-09T10:43:32.012Z,2.04
2023-02-09T10:46:17.265Z,2.06
2023-02-09T10:48:45.490Z,2.06
2023-02-09T10:51:28.638Z,2.07
2023-02-09T10:53:55.412Z,2.09
2023-02-09T10:56:32.630Z,2.13
2023-02-09T10:59:14.740Z,2.11
2023-02-09T11:01:43.573Z,2.05
2023-02-09T11:04:22.970Z,2.01
2023-02-09T11:07:05.859Z,1.99
2023-02-09T11:09:35.444Z,1.98
2023-02-09T11:12:02.493Z,1.96
2023-02-09T11:14:29.615Z,1.95
2023-02-09T11:17:20.873Z,1.95
2023-02-09T11:20:00.027Z,1.98
2023-02-09T11:23:04.798Z,2.00
2023-02-09T11:25:51.831Z,2.03
2023-02-09T11:28:31.281Z,2.05
2023-02-09T11:31:15.084Z,2.09
2023-02-09T11:33:57.172Z,2.13
2023-02-09T11:36:38.658Z,2.17
2023-02-09T11:39:13.297Z,2.20
2023-02-09T11:42:08.281Z,2.24
2023-02-09T11:44:51.320Z,2.28
2023-02-09T11:47:25.746Z,2.32
2023-02-09T11:49:56.110Z,2.38
2023-02-09T11:52:48.618Z,2.44
2023-02-09T11:55:28.333Z,2.50
2023-02-09T11:58:33.139Z,2.55
2023-02-09T12:01:14.694Z,2.59
2023-02-09T12:03:53.438Z,2.62
2023-02-09T12:06:23.100Z,2.64
2023-02-09T12:09:01.128Z,2.68
2023-02-09T12:11:39.254Z,2.75
2023-02-09T12:14:42.622Z,2.80
2023-02-09T12:17:18.044Z,2.88
2023-02-09T12:19:54.785Z,2.97
2023-02-09T12:22:46.644Z,3.04
2023-02-09T12:25:54.580Z,3.12
2023-02-09T12:28:27.418Z,3.14
2023-02-09T12:30:54.109Z,3.17
2023-02-09T12:33:23.856Z,3.22
2023-02-09T12:36:01.236Z,3.29
2023-02-09T12:39:04.578Z,3.35
2023-02-09T12:41:34.981Z,3.42
2023-02-09T12:44:09.069Z,3.49
2023-02-09T12:46:47.767Z,3.54
2023-02-09T12:49:15.366Z,3.60
2023-02-09T12:51:45.012Z,3.64
2023-02-09T12:54:39.299Z,3.70
2023-02-09T12:57:14.957Z,3.77
2023-02-09T13:00:02.015Z,3.80
2023-02-09T13:02:48.950Z,3.85
2023-02-09T13:05:37.110Z,3.88
2023-02-09T13:08:25.336Z,3.90
2023-02-09T13:11:03.855Z,3.91
2023-02-09T13:13:55.755Z,3.88
2023-02-09T13:16:22.628Z,3.84
2023-02-09T13:19:11.354Z,3.83
2023-02-09T13:21:46.973Z,3.84
2023-02-09T13:24:17.784Z,3.83
2023-02-09T13:26:56.660Z,3.81
2023-02-09T13:29:29.221Z,3.77
2023-02-09T13:32:20.292Z,3.75
2023-02-09T13:34:52.587Z,3.73
2023-02-09T13:37:38.392Z,3.73
2023-02-09T13:40:29.847Z,3.73
2023-02-09T13:43:15.257Z,3.72
2023-02-09T13:45:50.916Z,3.71
2023-02-09T13:48:28.510Z,3.71
2023-02-09T13:51:00.990Z,3.71
2023-02-09T13:53:30.133Z,3.70
2023-02-09T13:55:59.809Z,3.68
2023-02-09T13:58:35.692Z,3.66
2023-02-09T14:01:09.009Z,3.64
2023-02-09T14:03:57.364Z,3.62
2023-02-09T14:06:37.163Z,3.60
2023-02-09T14:09:11.821Z,3.61
2023-02-09T14:11:45.022Z,3.61
2023-02-09T14:14:19.315Z,3.61
2023-02-09T14:16:53.599Z,3.59
2023-02-09T14:19:25.794Z,3.58
2023-02-09T14:21:52.813Z,3.56
2023-02-09T14:24:24.838Z,3.56
2023-02-09T14:26:56.000Z,3.55
2023-02-09T14:29:31.640Z,3.53
2023-02-09T14:32:31.133Z,3.50
2023-02-09T14:35:20.441Z,3.52
2023-02-09T14:37:49.181Z,3.97
2023-02-09T14:40:30.365Z,4.78
2023-02-09T14:43:01.400Z,5.73
2023-02-09T14:45:58.050Z,6.49
2023-02-09T14:48:27.238Z,6.86
2023-02-09T14:51:15.841Z,6.60
2023-02-09T14:53:43.853Z,6.14
2023-02-09T14:56:33.880Z,5.68
2023-02-09T14:59:00.723Z,5.11
2023-02-09T15:01:28.953Z,4.70
2023-02-09T15:03:55.584Z,4.37
2023-02-09T15:06:23.691Z,4.05
2023-02-09T15:08:50.488Z,3.73
2023-02-09T15:11:42.774Z,3.49
2023-02-09T15:14:10.727Z,3.23
2023-02-09T15:16:37.579Z,3.05
2023-02-09T15:19:13.071Z,2.88
2023-02-09T15:21:39.711Z,2.74
2023-02-09T15:24:06.384Z,2.60
2023-02-09T15:26:36.182Z,2.47
2023-02-09T15:29:10.646Z,2.35
2023-02-09T15:31:37.473Z,2.25
2023-02-09T15:34:04.941Z,2.17
2023-02-09T15:36:31.876Z,2.07
2023-02-09T15:38:59.150Z,1.97
2023-02-09T15:41:44.720Z,1.88
2023-02-09T15:44:36.773Z,1.77
2023-02-09T15:47:22.794Z,1.67
2023-02-09T15:49:50.240Z,1.58
2023-02-09T15:52:17.714Z,1.51
2023-02-09T15:54:45.183Z,1.43
2023-02-09T15:57:13.326Z,1.35
2023-02-09T15:59:41.055Z,1.26
2023-02-09T16:02:12.708Z,1.17
2023-02-09T16:04:39.708Z,1.09
2023-02-09T16:07:06.929Z,1.01
2023-02-09T16:09:35.194Z,0.94
2023-02-09T16:12:02.156Z,0.87
2023-02-09T16:14:31.013Z,0.80
2023-02-09T16:16:57.776Z,0.73
2023-02-09T16:19:24.782Z,0.67
2023-02-09T16:21:55.899Z,0.62
2023-02-09T16:24:32.959Z,0.57
2023-02-09T16:27:04.640Z,0.53
2023-02-09T16:29:31.390Z,0.49
2023-02-09T16:31:58.319Z,0.46
2023-02-09T16:34:25.221Z,0.42
2023-02-09T16:36:52.078Z,0.37
2023-02-09T16:39:21.670Z,0.32
2023-02-09T16:41:52.110Z,0.28
2023-02-09T16:44:24.024Z,0.25
2023-02-09T16:46:53.746Z,0.20
2023-02-09T16:49:43.957Z,0.17
2023-02-09T16:52:18.977Z,0.15
2023-02-09T16:54:49.338Z,0.12
2023-02-09T16:57:19.394Z,0.08
2023-02-09T16:59:46.507Z,0.05
2023-02-09T17:02:53.920Z,0.04
2023-02-09T17:05:25.830Z,0.05
2023-02-09T17:08:22.970Z,0.04
2023-02-09T17:10:52.408Z,0.04
2023-02-09T17:13:20.844Z,0.03
2023-02-09T17:15:58.799Z,0.03
2023-02-09T17:18:30.539Z,0.02
2023-02-09T17:21:05.362Z,0.01
2023-02-09T17:23:32.207Z,-0.03
2023-02-09T17:25:59.049Z,-0.05
2023-02-09T17:28:27.306Z,-0.07
2023-02-09T17:30:58.570Z,-0.09
2023-02-09T17:33:32.068Z,-0.12
2023-02-09T17:38:46.336Z,-0.16
2023-02-09T17:41:19.497Z,-0.18
2023-02-09T17:43:47.086Z,-0.20
2023-02-09T17:46:18.231Z,-0.22
2023-02-09T17:48:46.358Z,-0.21
2023-02-09T17:51:29.876Z,-0.19
2023-02-09T17:53:57.074Z,-0.18
2023-02-09T17:56:23.703Z,-0.19
2023-02-09T17:58:50.660Z,-0.19
2023-02-09T18:01:29.050Z,-0.20
2023-02-09T18:03:58.590Z,-0.21
2023-02-09T18:06:35.896Z,-0.22
2023-02-09T18:09:13.076Z,-0.23
2023-02-09T18:11:45.747Z,-0.26
2023-02-09T18:14:14.557Z,-0.27
2023-02-09T18:16:42.103Z,-0.28
2023-02-09T18:19:09.940Z,-0.30
2023-02-09T18:21:36.909Z,-0.33
2023-02-09T18:24:05.396Z,-0.35
2023-02-09T18:26:33.431Z,-0.36
2023-02-09T18:29:00.456Z,-0.36
2023-02-09T18:31:27.250Z,-0.38
2023-02-09T18:33:54.205Z,-0.39
2023-02-09T18:36:21.520Z,-0.40
2023-02-09T18:38:50.470Z,-0.41
2023-02-09T18:41:17.097Z,-0.40
2023-02-09T18:43:44.693Z,-0.40
2023-02-09T18:46:15.236Z,-0.39
2023-02-09T18:48:42.227Z,-0.38
2023-02-09T18:51:09.768Z,-0.35
2023-02-09T18:53:37.811Z,-0.34
2023-02-09T18:56:05.158Z,-0.31
2023-02-09T18:58:32.271Z,-0.28
2023-02-09T19:00:59.210Z,-0.24
2023-02-09T19:03:26.170Z,-0.20
2023-02-09T19:05:53.152Z,-0.17
2023-02-09T19:08:20.129Z,-0.15
2023-02-09T19:10:46.838Z,-0.13
2023-02-09T19:13:13.793Z,-0.11
2023-02-09T19:15:40.742Z,-0.08
2023-02-09T19:18:07.423Z,-0.05
2023-02-09T19:20:34.344Z,-0.03
2023-02-09T19:23:03.084Z,-0.02
2023-02-09T19:25:32.744Z,-0.01
2023-02-09T19:27:59.807Z,-0.00
2023-02-09T19:30:27.974Z,0.01
2023-02-09T19:33:00.679Z,0.01
2023-02-09T19:35:28.774Z,0.03
2023-02-09T19:37:57.593Z,0.04
2023-02-09T19:40:36.677Z,0.05
2023-02-09T19:43:05.446Z,0.07
2023-02-09T19:45:36.097Z,0.09
2023-02-09T19:48:07.789Z,0.10
2023-02-09T19:50:38.479Z,0.11
2023-02-09T19:53:06.334Z,0.12
2023-02-09T19:55:34.282Z,0.14
2023-02-09T19:58:01.359Z,0.13
2023-02-09T20:00:28.370Z,0.13
2023-02-09T20:02:55.471Z,0.13
2023-02-09T20:05:22.676Z,0.12
2023-02-09T20:07:49.588Z,0.12
2023-02-09T20:10:16.481Z,0.11
2023-02-09T20:15:15.330Z,0.11
2023-02-09T20:17:43.779Z,0.10
2023-02-09T20:20:11.909Z,0.09
2023-02-09T20:22:38.693Z,0.08
2023-02-09T20:25:06.188Z,0.07
2023-02-09T20:27:33.862Z,0.07
2023-02-09T20:30:07.336Z,0.06
2023-02-09T20:32:37.129Z,0.04
2023-02-09T20:35:04.937Z,0.02
2023-02-09T20:37:31.869Z,0.01
2023-02-09T20:39:58.981Z,-0.00
2023-02-09T20:42:44.696Z,-0.01
2023-02-09T20:45:34.654Z,-0.03
2023-02-09T20:48:01.614Z,-0.04
2023-02-09T20:50:32.100Z,-0.05
2023-02-09T20:53:00.885Z,-0.07
2023-02-09T20:55:28.981Z,-0.08
2023-02-09T20:57:55.955Z,-0.09
2023-02-09T21:00:22.824Z,-0.11
2023-02-09T21:02:49.729Z,-0.12
2023-02-09T21:05:16.909Z,-0.13
2023-02-09T21:07:43.780Z,-0.15
2023-02-09T21:10:14.478Z,-0.16
2023-02-09T21:12:41.273Z,-0.17
2023-02-09T21:15:08.126Z,-0.19
2023-02-09T21:17:35.066Z,-0.20
2023-02-09T21:20:02.256Z,-0.23
2023-02-09T21:22:28.954Z,-0.24
2023-02-09T21:24:55.695Z,-0.26
2023-02-09T21:27:25.390Z,-0.27
2023-02-09T21:29:52.065Z,-0.29
2023-02-09T21:32:18.819Z,-0.30
2023-02-09T21:34:45.948Z,-0.30
2023-02-09T21:37:13.449Z,-0.31
2023-02-09T21:39:40.528Z,-0.31
2023-02-09T21:42:29.028Z,-0.30
2023-02-09T21:44:56.581Z,-0.31
2023-02-09T21:47:33.486Z,-0.31
2023-02-09T21:50:00.195Z,-0.32
2023-02-09T21:52:29.303Z,-0.32
2023-02-09T21:54:55.976Z,-0.33
2023-02-09T21:57:22.893Z,-0.33
2023-02-09T21:59:49.672Z,-0.34
2023-02-09T22:02:17.492Z,-0.35
2023-02-09T22:04:46.203Z,-0.35
2023-02-09T22:07:13.915Z,-0.36
2023-02-09T22:09:40.929Z,-0.37
2023-02-09T22:12:08.114Z,-0.37
2023-02-09T22:14:35.020Z,-0.37
2023-02-09T22:17:01.765Z,-0.38
2023-02-09T22:19:28.539Z,-0.37
2023-02-09T22:21:57.327Z,-0.37
2023-02-09T22:24:24.678Z,-0.36
2023-02-09T22:26:51.632Z,-0.37
2023-02-09T22:29:19.216Z,-0.36
2023-02-09T22:31:45.962Z,-0.36
2023-02-09T22:34:13.093Z,-0.35
2023-02-09T22:36:40.179Z,-0.34
2023-02-09T22:39:07.210Z,-0.34
2023-02-09T22:41:33.944Z,-0.33
2023-02-09T22:44:03.919Z,-0.32
2023-02-09T22:46:37.090Z,-0.33
2023-02-09T22:49:12.067Z,-0.33
2023-02-09T22:51:38.758Z,-0.33
2023-02-09T22:54:05.567Z,-0.33
2023-02-09T22:56:32.582Z,-0.33
2023-02-09T22:59:00.711Z,-0.33
2023-02-09T23:01:28.593Z,-0.33
2023-02-09T23:03:55.550Z,-0.33
2023-02-09T23:06:26.544Z,-0.33
2023-02-09T23:09:05.285Z,-0.32
2023-02-09T23:11:32.398Z,-0.32
2023-02-09T23:14:09.314Z,-0.32
2023-02-09T23:16:39.596Z,-0.32
2023-02-09T23:19:08.505Z,-0.31
2023-02-09T23:21:38.780Z,-0.30
2023-02-09T23:24:06.303Z,-0.30
2023-02-09T23:26:33.862Z,-0.30
2023-02-09T23:29:03.649Z,-0.31
2023-02-09T23:31:33.102Z,-0.32
2023-02-09T23:33:59.881Z,-0.33
2023-02-09T23:36:28.818Z,-0.34
2023-02-09T23:38:58.255Z,-0.35
2023-02-09T23:41:25.896Z,-0.36
2023-02-09T23:43:53.417Z,-0.39
2023-02-09T23:46:22.842Z,-0.39
2023-02-09T23:48:52.571Z,-0.41
2023-02-09T23:51:23.853Z,-0.41
2023-02-09T23:53:50.651Z,-0.42
2023-02-09T23:56:18.525Z,-0.44
2023-02-09T23:58:48.193Z,-0.46
